sensor_id;sensor_type;location;lat;lon;timestamp;P1;durP1;ratioP1;P2;durP2;ratioP2
7128;SDS011;3606;52.930;8.644;2023-09-19T00:01:14;6.17;;;4.13;;
7128;SDS011;3606;52.930;8.644;2023-09-19T00:03:40;7.40;;;3.57;;
7128;SDS011;3606;52.930;8.644;2023-09-19T00:06:07;6.43;;;4.10;;
7128;SDS011;3606;52.930;8.644;2023-09-19T00:08:35;8.13;;;4.03;;
7128;SDS011;3606;52.930;8.644;2023-09-19T00:11:01;5.93;;;3.80;;
7128;SDS011;3606;52.930;8.644;2023-09-19T00:13:31;9.33;;;3.80;;
7128;SDS011;3606;52.930;8.644;2023-09-19T00:15:57;5.97;;;3.50;;
7128;SDS011;3606;52.930;8.644;2023-09-19T00:18:24;5.03;;;3.80;;
7128;SDS011;3606;52.930;8.644;2023-09-19T00:20:56;8.10;;;3.53;;
7128;SDS011;3606;52.930;8.644;2023-09-19T00:23:22;4.87;;;3.53;;
7128;SDS011;3606;52.930;8.644;2023-09-19T00:25:49;6.20;;;3.43;;
7128;SDS011;3606;52.930;8.644;2023-09-19T00:28:16;6.57;;;3.20;;
7128;SDS011;3606;52.930;8.644;2023-09-19T00:30:43;9.23;;;3.53;;
7128;SDS011;3606;52.930;8.644;2023-09-19T00:33:10;7.07;;;3.50;;
7128;SDS011;3606;52.930;8.644;2023-09-19T00:35:48;9.77;;;3.47;;
7128;SDS011;3606;52.930;8.644;2023-09-19T00:38:14;7.90;;;3.57;;
7128;SDS011;3606;52.930;8.644;2023-09-19T00:40:46;6.37;;;3.27;;
7128;SDS011;3606;52.930;8.644;2023-09-19T00:43:12;7.10;;;3.90;;
7128;SDS011;3606;52.930;8.644;2023-09-19T00:45:38;6.67;;;3.40;;
7128;SDS011;3606;52.930;8.644;2023-09-19T00:48:07;7.83;;;3.70;;
7128;SDS011;3606;52.930;8.644;2023-09-19T00:50:34;5.10;;;3.13;;
7128;SDS011;3606;52.930;8.644;2023-09-19T00:53:01;6.63;;;3.43;;
7128;SDS011;3606;52.930;8.644;2023-09-19T00:55:33;7.27;;;3.50;;
7128;SDS011;3606;52.930;8.644;2023-09-19T00:58:00;6.53;;;3.20;;
7128;SDS011;3606;52.930;8.644;2023-09-19T01:00:26;9.37;;;3.30;;
7128;SDS011;3606;52.930;8.644;2023-09-19T01:02:52;5.77;;;3.37;;
7128;SDS011;3606;52.930;8.644;2023-09-19T01:05:18;7.43;;;3.70;;
7128;SDS011;3606;52.930;8.644;2023-09-19T01:07:44;8.33;;;3.30;;
7128;SDS011;3606;52.930;8.644;2023-09-19T01:10:11;6.60;;;3.43;;
7128;SDS011;3606;52.930;8.644;2023-09-19T01:15:24;4.43;;;2.50;;
7128;SDS011;3606;52.930;8.644;2023-09-19T01:29:33;4.00;;;1.93;;
7128;SDS011;3606;52.930;8.644;2023-09-19T01:32:09;3.13;;;1.87;;
7128;SDS011;3606;52.930;8.644;2023-09-19T01:34:48;2.90;;;1.60;;
7128;SDS011;3606;52.930;8.644;2023-09-19T01:37:15;3.43;;;1.87;;
7128;SDS011;3606;52.930;8.644;2023-09-19T01:51:11;2.47;;;1.67;;
7128;SDS011;3606;52.930;8.644;2023-09-19T01:53:50;3.83;;;2.23;;
7128;SDS011;3606;52.930;8.644;2023-09-19T01:56:25;4.67;;;2.20;;
7128;SDS011;3606;52.930;8.644;2023-09-19T01:59:17;2.50;;;1.97;;
7128;SDS011;3606;52.930;8.644;2023-09-19T02:01:50;4.07;;;2.10;;
7128;SDS011;3606;52.930;8.644;2023-09-19T02:04:18;4.67;;;2.10;;
7128;SDS011;3606;52.930;8.644;2023-09-19T02:06:44;3.90;;;1.80;;
7128;SDS011;3606;52.930;8.644;2023-09-19T02:09:12;3.90;;;1.90;;
7128;SDS011;3606;52.930;8.644;2023-09-19T02:11:39;4.43;;;1.77;;
7128;SDS011;3606;52.930;8.644;2023-09-19T02:14:06;5.67;;;2.40;;
7128;SDS011;3606;52.930;8.644;2023-09-19T02:16:33;4.77;;;1.80;;
7128;SDS011;3606;52.930;8.644;2023-09-19T02:18:59;3.03;;;2.00;;
7128;SDS011;3606;52.930;8.644;2023-09-19T02:21:25;3.40;;;1.70;;
7128;SDS011;3606;52.930;8.644;2023-09-19T02:23:54;3.17;;;2.10;;
7128;SDS011;3606;52.930;8.644;2023-09-19T02:26:20;5.80;;;2.10;;
7128;SDS011;3606;52.930;8.644;2023-09-19T02:28:45;6.20;;;2.43;;
7128;SDS011;3606;52.930;8.644;2023-09-19T02:31:11;2.80;;;1.90;;
7128;SDS011;3606;52.930;8.644;2023-09-19T02:33:37;4.93;;;2.17;;
7128;SDS011;3606;52.930;8.644;2023-09-19T02:36:02;4.97;;;2.40;;
7128;SDS011;3606;52.930;8.644;2023-09-19T02:38:31;6.10;;;2.20;;
7128;SDS011;3606;52.930;8.644;2023-09-19T02:40:56;4.40;;;2.00;;
7128;SDS011;3606;52.930;8.644;2023-09-19T02:43:22;5.03;;;2.00;;
7128;SDS011;3606;52.930;8.644;2023-09-19T02:45:48;8.60;;;2.50;;
7128;SDS011;3606;52.930;8.644;2023-09-19T02:48:15;3.87;;;1.97;;
7128;SDS011;3606;52.930;8.644;2023-09-19T02:50:41;8.33;;;2.70;;
7128;SDS011;3606;52.930;8.644;2023-09-19T02:53:07;7.93;;;2.60;;
7128;SDS011;3606;52.930;8.644;2023-09-19T02:55:33;8.37;;;3.23;;
7128;SDS011;3606;52.930;8.644;2023-09-19T02:57:59;8.77;;;3.70;;
7128;SDS011;3606;52.930;8.644;2023-09-19T03:00:26;7.53;;;2.97;;
7128;SDS011;3606;52.930;8.644;2023-09-19T03:02:53;3.27;;;2.40;;
7128;SDS011;3606;52.930;8.644;2023-09-19T03:05:20;6.33;;;2.73;;
7128;SDS011;3606;52.930;8.644;2023-09-19T03:07:47;7.27;;;2.67;;
7128;SDS011;3606;52.930;8.644;2023-09-19T03:10:18;7.03;;;2.60;;
7128;SDS011;3606;52.930;8.644;2023-09-19T03:12:48;6.90;;;2.60;;
7128;SDS011;3606;52.930;8.644;2023-09-19T03:15:14;6.23;;;2.67;;
7128;SDS011;3606;52.930;8.644;2023-09-19T03:17:44;6.37;;;2.77;;
7128;SDS011;3606;52.930;8.644;2023-09-19T03:20:11;5.93;;;2.63;;
7128;SDS011;3606;52.930;8.644;2023-09-19T03:22:38;7.50;;;2.97;;
7128;SDS011;3606;52.930;8.644;2023-09-19T03:25:05;9.13;;;2.97;;
7128;SDS011;3606;52.930;8.644;2023-09-19T03:27:36;3.63;;;2.50;;
7128;SDS011;3606;52.930;8.644;2023-09-19T03:30:03;8.00;;;2.87;;
7128;SDS011;3606;52.930;8.644;2023-09-19T03:32:33;7.73;;;3.03;;
7128;SDS011;3606;52.930;8.644;2023-09-19T03:35:02;6.47;;;3.00;;
7128;SDS011;3606;52.930;8.644;2023-09-19T03:37:30;9.73;;;3.07;;
7128;SDS011;3606;52.930;8.644;2023-09-19T03:39:56;11.10;;;3.17;;
7128;SDS011;3606;52.930;8.644;2023-09-19T03:42:21;8.90;;;3.20;;
7128;SDS011;3606;52.930;8.644;2023-09-19T03:44:50;10.23;;;3.33;;
7128;SDS011;3606;52.930;8.644;2023-09-19T03:47:19;8.23;;;3.10;;
7128;SDS011;3606;52.930;8.644;2023-09-19T03:49:45;10.40;;;3.03;;
7128;SDS011;3606;52.930;8.644;2023-09-19T03:52:10;7.77;;;3.33;;
7128;SDS011;3606;52.930;8.644;2023-09-19T03:54:36;7.33;;;3.13;;
7128;SDS011;3606;52.930;8.644;2023-09-19T03:57:02;11.23;;;3.70;;
7128;SDS011;3606;52.930;8.644;2023-09-19T03:59:28;5.50;;;3.23;;
7128;SDS011;3606;52.930;8.644;2023-09-19T04:01:54;8.33;;;2.87;;
7128;SDS011;3606;52.930;8.644;2023-09-19T04:04:22;6.67;;;3.30;;
7128;SDS011;3606;52.930;8.644;2023-09-19T04:06:49;9.03;;;3.37;;
7128;SDS011;3606;52.930;8.644;2023-09-19T04:09:18;10.00;;;3.37;;
7128;SDS011;3606;52.930;8.644;2023-09-19T04:11:44;7.80;;;3.40;;
7128;SDS011;3606;52.930;8.644;2023-09-19T04:14:09;10.63;;;3.33;;
7128;SDS011;3606;52.930;8.644;2023-09-19T04:16:35;6.07;;;2.73;;
7128;SDS011;3606;52.930;8.644;2023-09-19T04:19:00;10.67;;;3.07;;
7128;SDS011;3606;52.930;8.644;2023-09-19T04:21:26;9.57;;;3.77;;
7128;SDS011;3606;52.930;8.644;2023-09-19T04:23:53;12.20;;;3.50;;
7128;SDS011;3606;52.930;8.644;2023-09-19T04:26:18;10.07;;;3.37;;
7128;SDS011;3606;52.930;8.644;2023-09-19T04:28:44;8.73;;;2.97;;
7128;SDS011;3606;52.930;8.644;2023-09-19T04:31:11;11.47;;;3.17;;
7128;SDS011;3606;52.930;8.644;2023-09-19T04:33:36;6.40;;;3.10;;
7128;SDS011;3606;52.930;8.644;2023-09-19T04:36:02;7.50;;;2.90;;
7128;SDS011;3606;52.930;8.644;2023-09-19T04:38:32;7.87;;;3.27;;
7128;SDS011;3606;52.930;8.644;2023-09-19T04:40:58;8.47;;;3.30;;
7128;SDS011;3606;52.930;8.644;2023-09-19T04:43:24;14.00;;;3.50;;
7128;SDS011;3606;52.930;8.644;2023-09-19T04:45:50;5.37;;;3.10;;
7128;SDS011;3606;52.930;8.644;2023-09-19T04:48:19;15.23;;;3.90;;
7128;SDS011;3606;52.930;8.644;2023-09-19T04:50:44;10.60;;;3.67;;
7128;SDS011;3606;52.930;8.644;2023-09-19T04:53:10;15.20;;;3.30;;
7128;SDS011;3606;52.930;8.644;2023-09-19T04:55:36;7.13;;;3.40;;
7128;SDS011;3606;52.930;8.644;2023-09-19T04:58:01;10.00;;;3.60;;
7128;SDS011;3606;52.930;8.644;2023-09-19T05:00:27;12.03;;;3.33;;
7128;SDS011;3606;52.930;8.644;2023-09-19T05:02:56;10.57;;;3.67;;
7128;SDS011;3606;52.930;8.644;2023-09-19T05:05:22;10.00;;;3.33;;
7128;SDS011;3606;52.930;8.644;2023-09-19T05:07:48;10.93;;;3.53;;
7128;SDS011;3606;52.930;8.644;2023-09-19T05:10:14;12.33;;;3.40;;
7128;SDS011;3606;52.930;8.644;2023-09-19T05:12:41;10.47;;;3.13;;
7128;SDS011;3606;52.930;8.644;2023-09-19T05:15:07;12.20;;;3.47;;
7128;SDS011;3606;52.930;8.644;2023-09-19T05:17:33;9.80;;;3.67;;
7128;SDS011;3606;52.930;8.644;2023-09-19T05:19:59;11.33;;;3.67;;
7128;SDS011;3606;52.930;8.644;2023-09-19T05:22:36;11.23;;;4.07;;
7128;SDS011;3606;52.930;8.644;2023-09-19T05:25:04;10.97;;;3.87;;
7128;SDS011;3606;52.930;8.644;2023-09-19T05:27:30;11.83;;;3.57;;
7128;SDS011;3606;52.930;8.644;2023-09-19T05:29:56;10.43;;;3.20;;
7128;SDS011;3606;52.930;8.644;2023-09-19T05:32:21;14.03;;;3.67;;
7128;SDS011;3606;52.930;8.644;2023-09-19T05:34:47;8.97;;;3.37;;
7128;SDS011;3606;52.930;8.644;2023-09-19T05:37:13;14.17;;;3.93;;
7128;SDS011;3606;52.930;8.644;2023-09-19T05:39:41;9.37;;;3.60;;
7128;SDS011;3606;52.930;8.644;2023-09-19T05:42:07;8.17;;;3.77;;
7128;SDS011;3606;52.930;8.644;2023-09-19T05:44:33;7.23;;;3.80;;
7128;SDS011;3606;52.930;8.644;2023-09-19T05:46:59;11.83;;;3.57;;
7128;SDS011;3606;52.930;8.644;2023-09-19T05:49:24;12.20;;;3.43;;
7128;SDS011;3606;52.930;8.644;2023-09-19T05:51:50;12.03;;;3.80;;
7128;SDS011;3606;52.930;8.644;2023-09-19T05:54:19;9.67;;;3.53;;
7128;SDS011;3606;52.930;8.644;2023-09-19T05:56:45;11.47;;;3.37;;
7128;SDS011;3606;52.930;8.644;2023-09-19T05:59:12;9.17;;;3.73;;
7128;SDS011;3606;52.930;8.644;2023-09-19T06:01:39;9.30;;;3.43;;
7128;SDS011;3606;52.930;8.644;2023-09-19T06:04:04;13.30;;;3.77;;
7128;SDS011;3606;52.930;8.644;2023-09-19T06:06:30;9.37;;;3.33;;
7128;SDS011;3606;52.930;8.644;2023-09-19T06:08:55;13.63;;;3.90;;
7128;SDS011;3606;52.930;8.644;2023-09-19T06:11:22;11.97;;;3.20;;
7128;SDS011;3606;52.930;8.644;2023-09-19T06:13:51;9.40;;;3.27;;
7128;SDS011;3606;52.930;8.644;2023-09-19T06:16:18;12.63;;;3.53;;
7128;SDS011;3606;52.930;8.644;2023-09-19T06:18:44;9.77;;;3.37;;
7128;SDS011;3606;52.930;8.644;2023-09-19T06:21:10;10.77;;;3.33;;
7128;SDS011;3606;52.930;8.644;2023-09-19T06:23:36;12.63;;;3.27;;
7128;SDS011;3606;52.930;8.644;2023-09-19T06:26:01;9.40;;;3.23;;
7128;SDS011;3606;52.930;8.644;2023-09-19T06:28:31;12.57;;;3.47;;
7128;SDS011;3606;52.930;8.644;2023-09-19T06:30:58;10.23;;;3.20;;
7128;SDS011;3606;52.930;8.644;2023-09-19T06:33:24;10.40;;;3.40;;
7128;SDS011;3606;52.930;8.644;2023-09-19T06:35:50;8.40;;;3.00;;
7128;SDS011;3606;52.930;8.644;2023-09-19T06:38:24;15.23;;;3.10;;
7128;SDS011;3606;52.930;8.644;2023-09-19T06:40:49;13.70;;;3.20;;
7128;SDS011;3606;52.930;8.644;2023-09-19T06:43:15;10.90;;;3.30;;
7128;SDS011;3606;52.930;8.644;2023-09-19T06:45:40;10.50;;;3.57;;
7128;SDS011;3606;52.930;8.644;2023-09-19T06:48:07;8.23;;;3.30;;
7128;SDS011;3606;52.930;8.644;2023-09-19T06:50:34;9.43;;;3.13;;
7128;SDS011;3606;52.930;8.644;2023-09-19T06:53:01;10.37;;;3.10;;
7128;SDS011;3606;52.930;8.644;2023-09-19T06:55:27;10.93;;;3.00;;
7128;SDS011;3606;52.930;8.644;2023-09-19T06:57:56;9.10;;;2.80;;
7128;SDS011;3606;52.930;8.644;2023-09-19T07:00:22;8.70;;;3.03;;
7128;SDS011;3606;52.930;8.644;2023-09-19T07:02:59;10.13;;;2.90;;
7128;SDS011;3606;52.930;8.644;2023-09-19T07:05:29;8.90;;;3.17;;
7128;SDS011;3606;52.930;8.644;2023-09-19T07:07:56;8.17;;;2.90;;
7128;SDS011;3606;52.930;8.644;2023-09-19T07:10:25;8.50;;;2.60;;
7128;SDS011;3606;52.930;8.644;2023-09-19T07:13:02;10.43;;;3.30;;
7128;SDS011;3606;52.930;8.644;2023-09-19T07:15:31;10.77;;;2.90;;
7128;SDS011;3606;52.930;8.644;2023-09-19T07:18:03;5.63;;;2.80;;
7128;SDS011;3606;52.930;8.644;2023-09-19T07:20:30;8.30;;;2.70;;
7128;SDS011;3606;52.930;8.644;2023-09-19T07:22:57;11.17;;;2.90;;
7128;SDS011;3606;52.930;8.644;2023-09-19T07:25:26;8.27;;;2.73;;
7128;SDS011;3606;52.930;8.644;2023-09-19T07:27:54;7.87;;;2.80;;
7128;SDS011;3606;52.930;8.644;2023-09-19T07:30:20;12.33;;;2.90;;
7128;SDS011;3606;52.930;8.644;2023-09-19T07:32:46;6.77;;;2.53;;
7128;SDS011;3606;52.930;8.644;2023-09-19T07:35:12;9.10;;;2.63;;
7128;SDS011;3606;52.930;8.644;2023-09-19T07:37:38;8.23;;;2.90;;
7128;SDS011;3606;52.930;8.644;2023-09-19T07:40:04;7.13;;;2.97;;
7128;SDS011;3606;52.930;8.644;2023-09-19T07:42:34;8.10;;;2.80;;
7128;SDS011;3606;52.930;8.644;2023-09-19T07:45:05;6.83;;;2.80;;
7128;SDS011;3606;52.930;8.644;2023-09-19T07:47:32;7.33;;;2.30;;
7128;SDS011;3606;52.930;8.644;2023-09-19T07:49:59;6.67;;;2.53;;
7128;SDS011;3606;52.930;8.644;2023-09-19T07:52:27;7.87;;;2.70;;
7128;SDS011;3606;52.930;8.644;2023-09-19T07:54:52;6.20;;;2.87;;
7128;SDS011;3606;52.930;8.644;2023-09-19T07:57:18;8.33;;;3.17;;
7128;SDS011;3606;52.930;8.644;2023-09-19T07:59:45;12.17;;;2.83;;
7128;SDS011;3606;52.930;8.644;2023-09-19T08:02:10;7.63;;;2.77;;
7128;SDS011;3606;52.930;8.644;2023-09-19T08:04:44;5.67;;;2.60;;
7128;SDS011;3606;52.930;8.644;2023-09-19T08:07:13;7.90;;;2.93;;
7128;SDS011;3606;52.930;8.644;2023-09-19T08:09:39;7.27;;;2.80;;
7128;SDS011;3606;52.930;8.644;2023-09-19T08:12:06;6.87;;;2.80;;
7128;SDS011;3606;52.930;8.644;2023-09-19T08:14:35;10.50;;;2.80;;
7128;SDS011;3606;52.930;8.644;2023-09-19T08:17:01;6.90;;;3.00;;
7128;SDS011;3606;52.930;8.644;2023-09-19T08:19:27;7.83;;;3.00;;
7128;SDS011;3606;52.930;8.644;2023-09-19T08:21:56;10.37;;;3.50;;
7128;SDS011;3606;52.930;8.644;2023-09-19T08:24:26;7.13;;;2.50;;
7128;SDS011;3606;52.930;8.644;2023-09-19T08:26:55;7.97;;;2.17;;
7128;SDS011;3606;52.930;8.644;2023-09-19T08:29:22;7.43;;;2.63;;
7128;SDS011;3606;52.930;8.644;2023-09-19T08:31:55;5.57;;;2.57;;
7128;SDS011;3606;52.930;8.644;2023-09-19T08:34:22;5.80;;;2.73;;
7128;SDS011;3606;52.930;8.644;2023-09-19T08:36:50;8.80;;;2.47;;
7128;SDS011;3606;52.930;8.644;2023-09-19T08:39:21;6.03;;;2.33;;
7128;SDS011;3606;52.930;8.644;2023-09-19T08:41:47;8.00;;;3.10;;
7128;SDS011;3606;52.930;8.644;2023-09-19T08:44:13;7.60;;;2.67;;
7128;SDS011;3606;52.930;8.644;2023-09-19T08:46:40;7.97;;;2.50;;
7128;SDS011;3606;52.930;8.644;2023-09-19T08:49:16;8.13;;;2.50;;
7128;SDS011;3606;52.930;8.644;2023-09-19T08:51:53;9.83;;;2.90;;
7128;SDS011;3606;52.930;8.644;2023-09-19T08:54:26;7.97;;;2.50;;
7128;SDS011;3606;52.930;8.644;2023-09-19T08:56:56;6.00;;;2.60;;
7128;SDS011;3606;52.930;8.644;2023-09-19T08:59:28;11.40;;;2.77;;
7128;SDS011;3606;52.930;8.644;2023-09-19T09:01:54;6.47;;;2.70;;
7128;SDS011;3606;52.930;8.644;2023-09-19T09:04:21;6.47;;;2.70;;
7128;SDS011;3606;52.930;8.644;2023-09-19T09:06:47;9.33;;;2.90;;
7128;SDS011;3606;52.930;8.644;2023-09-19T09:09:16;5.23;;;2.67;;
7128;SDS011;3606;52.930;8.644;2023-09-19T09:11:42;12.70;;;2.77;;
7128;SDS011;3606;52.930;8.644;2023-09-19T09:14:07;5.90;;;2.50;;
7128;SDS011;3606;52.930;8.644;2023-09-19T09:16:33;8.13;;;2.57;;
7128;SDS011;3606;52.930;8.644;2023-09-19T09:18:59;8.00;;;2.50;;
7128;SDS011;3606;52.930;8.644;2023-09-19T09:21:25;7.03;;;2.47;;
7128;SDS011;3606;52.930;8.644;2023-09-19T09:23:51;4.13;;;2.40;;
7128;SDS011;3606;52.930;8.644;2023-09-19T09:26:31;7.13;;;2.40;;
7128;SDS011;3606;52.930;8.644;2023-09-19T09:29:03;5.63;;;2.53;;
7128;SDS011;3606;52.930;8.644;2023-09-19T09:31:29;5.43;;;2.50;;
7128;SDS011;3606;52.930;8.644;2023-09-19T09:33:55;9.73;;;2.93;;
7128;SDS011;3606;52.930;8.644;2023-09-19T09:36:35;3.97;;;2.30;;
7128;SDS011;3606;52.930;8.644;2023-09-19T09:39:06;7.83;;;2.93;;
7128;SDS011;3606;52.930;8.644;2023-09-19T09:41:43;7.57;;;2.13;;
7128;SDS011;3606;52.930;8.644;2023-09-19T09:44:12;7.63;;;2.60;;
7128;SDS011;3606;52.930;8.644;2023-09-19T09:46:45;7.43;;;2.53;;
7128;SDS011;3606;52.930;8.644;2023-09-19T09:49:18;9.90;;;2.77;;
7128;SDS011;3606;52.930;8.644;2023-09-19T09:52:01;7.30;;;2.63;;
7128;SDS011;3606;52.930;8.644;2023-09-19T09:54:58;4.93;;;2.60;;
7128;SDS011;3606;52.930;8.644;2023-09-19T09:57:26;5.17;;;2.40;;
7128;SDS011;3606;52.930;8.644;2023-09-19T09:59:53;9.63;;;2.50;;
7128;SDS011;3606;52.930;8.644;2023-09-19T10:02:29;8.87;;;2.40;;
7128;SDS011;3606;52.930;8.644;2023-09-19T10:05:11;9.67;;;2.73;;
7128;SDS011;3606;52.930;8.644;2023-09-19T10:07:46;5.33;;;2.30;;
7128;SDS011;3606;52.930;8.644;2023-09-19T10:13:07;6.87;;;2.90;;
7128;SDS011;3606;52.930;8.644;2023-09-19T10:15:37;10.53;;;2.83;;
7128;SDS011;3606;52.930;8.644;2023-09-19T10:18:06;7.07;;;2.87;;
7128;SDS011;3606;52.930;8.644;2023-09-19T10:20:36;9.07;;;2.73;;
7128;SDS011;3606;52.930;8.644;2023-09-19T10:23:06;6.80;;;2.83;;
7128;SDS011;3606;52.930;8.644;2023-09-19T10:25:41;8.77;;;2.57;;
7128;SDS011;3606;52.930;8.644;2023-09-19T10:28:08;7.20;;;2.67;;
7128;SDS011;3606;52.930;8.644;2023-09-19T10:30:38;7.43;;;2.63;;
7128;SDS011;3606;52.930;8.644;2023-09-19T10:33:10;8.73;;;2.90;;
7128;SDS011;3606;52.930;8.644;2023-09-19T10:35:40;7.67;;;2.70;;
7128;SDS011;3606;52.930;8.644;2023-09-19T10:38:11;6.43;;;2.87;;
7128;SDS011;3606;52.930;8.644;2023-09-19T10:40:58;9.70;;;2.80;;
7128;SDS011;3606;52.930;8.644;2023-09-19T10:43:26;8.33;;;3.07;;
7128;SDS011;3606;52.930;8.644;2023-09-19T10:45:56;8.03;;;3.17;;
7128;SDS011;3606;52.930;8.644;2023-09-19T10:48:30;9.43;;;2.90;;
7128;SDS011;3606;52.930;8.644;2023-09-19T10:50:58;7.60;;;2.93;;
7128;SDS011;3606;52.930;8.644;2023-09-19T10:53:48;6.63;;;2.80;;
7128;SDS011;3606;52.930;8.644;2023-09-19T10:56:26;8.40;;;2.93;;
7128;SDS011;3606;52.930;8.644;2023-09-19T10:59:05;10.33;;;2.97;;
7128;SDS011;3606;52.930;8.644;2023-09-19T11:01:48;5.67;;;2.73;;
7128;SDS011;3606;52.930;8.644;2023-09-19T11:04:33;7.43;;;3.00;;
7128;SDS011;3606;52.930;8.644;2023-09-19T11:07:04;7.80;;;2.63;;
7128;SDS011;3606;52.930;8.644;2023-09-19T11:15:06;5.70;;;2.90;;
7128;SDS011;3606;52.930;8.644;2023-09-19T11:17:39;9.00;;;2.70;;
7128;SDS011;3606;52.930;8.644;2023-09-19T11:30:52;6.50;;;2.80;;
7128;SDS011;3606;52.930;8.644;2023-09-19T11:33:23;9.27;;;3.03;;
7128;SDS011;3606;52.930;8.644;2023-09-19T11:49:16;7.53;;;2.70;;
7128;SDS011;3606;52.930;8.644;2023-09-19T11:51:48;4.93;;;2.67;;
7128;SDS011;3606;52.930;8.644;2023-09-19T11:54:18;8.63;;;2.47;;
7128;SDS011;3606;52.930;8.644;2023-09-19T11:56:48;8.93;;;2.70;;
7128;SDS011;3606;52.930;8.644;2023-09-19T11:59:19;6.83;;;2.87;;
7128;SDS011;3606;52.930;8.644;2023-09-19T12:01:53;5.53;;;2.47;;
7128;SDS011;3606;52.930;8.644;2023-09-19T12:04:23;6.77;;;2.87;;
7128;SDS011;3606;52.930;8.644;2023-09-19T12:06:58;9.90;;;2.70;;
7128;SDS011;3606;52.930;8.644;2023-09-19T12:09:24;4.47;;;2.70;;
7128;SDS011;3606;52.930;8.644;2023-09-19T12:11:50;10.53;;;2.83;;
7128;SDS011;3606;52.930;8.644;2023-09-19T12:14:26;5.60;;;2.67;;
7128;SDS011;3606;52.930;8.644;2023-09-19T12:16:55;6.97;;;2.57;;
7128;SDS011;3606;52.930;8.644;2023-09-19T12:19:21;6.90;;;2.87;;
7128;SDS011;3606;52.930;8.644;2023-09-19T12:21:55;6.07;;;2.47;;
7128;SDS011;3606;52.930;8.644;2023-09-19T12:24:22;6.80;;;2.90;;
7128;SDS011;3606;52.930;8.644;2023-09-19T12:26:51;7.57;;;3.00;;
7128;SDS011;3606;52.930;8.644;2023-09-19T12:29:21;7.07;;;2.40;;
7128;SDS011;3606;52.930;8.644;2023-09-19T12:31:47;7.10;;;2.90;;
7128;SDS011;3606;52.930;8.644;2023-09-19T12:34:26;10.83;;;3.03;;
7128;SDS011;3606;52.930;8.644;2023-09-19T12:37:06;4.57;;;2.50;;
7128;SDS011;3606;52.930;8.644;2023-09-19T12:39:37;7.23;;;2.70;;
7128;SDS011;3606;52.930;8.644;2023-09-19T12:42:14;5.83;;;2.57;;
7128;SDS011;3606;52.930;8.644;2023-09-19T12:44:45;10.03;;;2.70;;
7128;SDS011;3606;52.930;8.644;2023-09-19T12:47:17;10.00;;;2.73;;
7128;SDS011;3606;52.930;8.644;2023-09-19T12:52:46;8.33;;;2.60;;
7128;SDS011;3606;52.930;8.644;2023-09-19T12:55:24;6.80;;;2.70;;
7128;SDS011;3606;52.930;8.644;2023-09-19T13:00:37;9.17;;;2.83;;
7128;SDS011;3606;52.930;8.644;2023-09-19T13:08:24;10.77;;;3.10;;
7128;SDS011;3606;52.930;8.644;2023-09-19T13:13:47;7.13;;;2.77;;
7128;SDS011;3606;52.930;8.644;2023-09-19T13:16:18;7.77;;;2.57;;
7128;SDS011;3606;52.930;8.644;2023-09-19T13:18:48;7.83;;;2.10;;
7128;SDS011;3606;52.930;8.644;2023-09-19T13:21:27;7.80;;;2.50;;
7128;SDS011;3606;52.930;8.644;2023-09-19T13:24:18;7.47;;;2.80;;
7128;SDS011;3606;52.930;8.644;2023-09-19T13:26:45;9.77;;;2.43;;
7128;SDS011;3606;52.930;8.644;2023-09-19T13:29:11;5.57;;;2.57;;
7128;SDS011;3606;52.930;8.644;2023-09-19T13:31:37;7.87;;;3.10;;
7128;SDS011;3606;52.930;8.644;2023-09-19T13:34:06;8.17;;;2.43;;
7128;SDS011;3606;52.930;8.644;2023-09-19T13:36:32;5.10;;;2.53;;
7128;SDS011;3606;52.930;8.644;2023-09-19T13:38:58;6.37;;;2.60;;
7128;SDS011;3606;52.930;8.644;2023-09-19T13:41:25;7.90;;;3.00;;
7128;SDS011;3606;52.930;8.644;2023-09-19T13:43:51;6.77;;;2.43;;
7128;SDS011;3606;52.930;8.644;2023-09-19T13:46:16;5.70;;;2.40;;
7128;SDS011;3606;52.930;8.644;2023-09-19T13:48:50;7.87;;;2.63;;
7128;SDS011;3606;52.930;8.644;2023-09-19T13:51:17;7.40;;;2.40;;
7128;SDS011;3606;52.930;8.644;2023-09-19T13:53:44;9.10;;;2.83;;
7128;SDS011;3606;52.930;8.644;2023-09-19T13:56:09;9.90;;;2.70;;
7128;SDS011;3606;52.930;8.644;2023-09-19T13:58:36;10.30;;;2.80;;
7128;SDS011;3606;52.930;8.644;2023-09-19T14:01:01;9.67;;;3.00;;
7128;SDS011;3606;52.930;8.644;2023-09-19T14:03:28;5.40;;;2.73;;
7128;SDS011;3606;52.930;8.644;2023-09-19T14:05:53;5.87;;;2.40;;
7128;SDS011;3606;52.930;8.644;2023-09-19T14:08:19;9.43;;;2.57;;
7128;SDS011;3606;52.930;8.644;2023-09-19T14:10:45;9.17;;;2.70;;
7128;SDS011;3606;52.930;8.644;2023-09-19T14:13:10;9.87;;;2.73;;
7128;SDS011;3606;52.930;8.644;2023-09-19T14:15:38;10.83;;;3.00;;
7128;SDS011;3606;52.930;8.644;2023-09-19T14:18:04;5.50;;;2.53;;
7128;SDS011;3606;52.930;8.644;2023-09-19T14:20:30;6.07;;;3.17;;
7128;SDS011;3606;52.930;8.644;2023-09-19T14:22:56;7.13;;;2.90;;
7128;SDS011;3606;52.930;8.644;2023-09-19T14:25:23;5.93;;;2.30;;
7128;SDS011;3606;52.930;8.644;2023-09-19T14:27:50;4.57;;;2.53;;
7128;SDS011;3606;52.930;8.644;2023-09-19T14:30:16;6.57;;;2.40;;
7128;SDS011;3606;52.930;8.644;2023-09-19T14:32:42;5.37;;;2.40;;
7128;SDS011;3606;52.930;8.644;2023-09-19T14:35:08;4.67;;;2.50;;
7128;SDS011;3606;52.930;8.644;2023-09-19T14:37:39;3.67;;;2.10;;
7128;SDS011;3606;52.930;8.644;2023-09-19T14:40:05;10.40;;;3.10;;
7128;SDS011;3606;52.930;8.644;2023-09-19T14:42:34;4.87;;;2.07;;
7128;SDS011;3606;52.930;8.644;2023-09-19T14:45:01;6.27;;;2.20;;
7128;SDS011;3606;52.930;8.644;2023-09-19T14:47:27;8.13;;;2.03;;
7128;SDS011;3606;52.930;8.644;2023-09-19T14:49:53;8.53;;;2.30;;
7128;SDS011;3606;52.930;8.644;2023-09-19T14:52:18;8.70;;;2.77;;
7128;SDS011;3606;52.930;8.644;2023-09-19T14:54:44;5.77;;;2.47;;
7128;SDS011;3606;52.930;8.644;2023-09-19T14:57:10;5.43;;;2.20;;
7128;SDS011;3606;52.930;8.644;2023-09-19T14:59:35;10.70;;;2.87;;
7128;SDS011;3606;52.930;8.644;2023-09-19T15:02:04;6.80;;;2.33;;
7128;SDS011;3606;52.930;8.644;2023-09-19T15:04:29;9.37;;;2.37;;
7128;SDS011;3606;52.930;8.644;2023-09-19T15:06:55;4.13;;;2.00;;
7128;SDS011;3606;52.930;8.644;2023-09-19T15:09:21;8.40;;;2.30;;
7128;SDS011;3606;52.930;8.644;2023-09-19T15:11:51;11.07;;;2.60;;
7128;SDS011;3606;52.930;8.644;2023-09-19T15:14:18;5.83;;;2.30;;
7128;SDS011;3606;52.930;8.644;2023-09-19T15:16:43;8.40;;;2.60;;
7128;SDS011;3606;52.930;8.644;2023-09-19T15:19:09;6.40;;;2.30;;
7128;SDS011;3606;52.930;8.644;2023-09-19T15:21:35;5.70;;;2.27;;
7128;SDS011;3606;52.930;8.644;2023-09-19T15:24:02;6.30;;;2.50;;
7128;SDS011;3606;52.930;8.644;2023-09-19T15:26:28;6.47;;;2.53;;
7128;SDS011;3606;52.930;8.644;2023-09-19T15:28:55;4.27;;;2.23;;
7128;SDS011;3606;52.930;8.644;2023-09-19T15:31:20;4.40;;;2.30;;
7128;SDS011;3606;52.930;8.644;2023-09-19T15:33:46;6.97;;;2.20;;
7128;SDS011;3606;52.930;8.644;2023-09-19T15:36:12;7.60;;;2.47;;
7128;SDS011;3606;52.930;8.644;2023-09-19T15:41:26;7.30;;;2.33;;
7128;SDS011;3606;52.930;8.644;2023-09-19T15:43:53;3.00;;;1.87;;
7128;SDS011;3606;52.930;8.644;2023-09-19T15:46:20;5.93;;;2.90;;
7128;SDS011;3606;52.930;8.644;2023-09-19T15:48:46;6.43;;;2.20;;
7128;SDS011;3606;52.930;8.644;2023-09-19T15:51:12;8.00;;;2.40;;
7128;SDS011;3606;52.930;8.644;2023-09-19T15:53:44;6.80;;;2.77;;
7128;SDS011;3606;52.930;8.644;2023-09-19T15:56:14;6.30;;;2.70;;
7128;SDS011;3606;52.930;8.644;2023-09-19T15:58:46;6.33;;;2.37;;
7128;SDS011;3606;52.930;8.644;2023-09-19T16:01:12;8.43;;;2.73;;
7128;SDS011;3606;52.930;8.644;2023-09-19T16:03:41;4.90;;;2.13;;
7128;SDS011;3606;52.930;8.644;2023-09-19T16:06:09;4.20;;;2.10;;
7128;SDS011;3606;52.930;8.644;2023-09-19T16:08:43;4.23;;;2.20;;
7128;SDS011;3606;52.930;8.644;2023-09-19T16:11:12;6.87;;;2.57;;
7128;SDS011;3606;52.930;8.644;2023-09-19T16:13:39;4.37;;;2.30;;
7128;SDS011;3606;52.930;8.644;2023-09-19T16:16:06;5.83;;;2.73;;
7128;SDS011;3606;52.930;8.644;2023-09-19T16:18:33;6.33;;;3.30;;
7128;SDS011;3606;52.930;8.644;2023-09-19T16:21:02;7.70;;;2.77;;
7128;SDS011;3606;52.930;8.644;2023-09-19T16:23:28;3.53;;;2.50;;
7128;SDS011;3606;52.930;8.644;2023-09-19T16:26:06;7.73;;;2.40;;
7128;SDS011;3606;52.930;8.644;2023-09-19T16:28:38;6.10;;;2.30;;
7128;SDS011;3606;52.930;8.644;2023-09-19T16:31:05;5.63;;;2.57;;
7128;SDS011;3606;52.930;8.644;2023-09-19T16:33:32;6.37;;;2.10;;
7128;SDS011;3606;52.930;8.644;2023-09-19T16:35:58;7.17;;;1.90;;